Time;durP1;ratioP1;P1;durP2;ratioP2;P2;SDS_P1;SDS_P2;PMS_P1;PMS_P2;Temp;Humidity;BMP_temperature;BMP_pressure;BME280_temperature;BME280_humidity;BME280_pressure;Samples;Min_cycle;Max_cycle;Signal;HPM_P1;HPM_P2
2022/03/01 00:00:06;;;;;;;19.85;12.93;;;;;;;4.03;57.04;102576.88;3584732;40;20044;-61
2022/03/01 00:02:31;;;;;;;19.42;12.25;;;;;;;4.02;57.20;102572.44;3584509;40;20417;-61
2022/03/01 00:04:57;;;;;;;22.08;12.50;;;;;;;4.00;57.07;102564.50;3581180;40;20052;-62
2022/03/01 00:07:23;;;;;;;18.98;12.05;;;;;;;4.02;56.55;102564.47;3584058;40;20056;-62
2022/03/01 00:09:48;;;;;;;19.75;12.00;;;;;;;4.11;56.72;102588.38;3584813;40;20330;-61
2022/03/01 00:12:15;;;;;;;20.23;13.02;;;;;;;3.96;56.57;102568.03;3583307;40;20071;-61
2022/03/01 00:14:41;;;;;;;17.17;11.88;;;;;;;3.93;56.87;102565.41;3581707;40;20048;-61
2022/03/01 00:17:06;;;;;;;17.30;12.38;;;;;;;3.92;57.74;102577.84;3584114;40;20083;-62
2022/03/01 00:19:32;;;;;;;22.05;12.93;;;;;;;3.91;57.43;102578.72;3583414;40;20045;-61
2022/03/01 00:21:59;;;;;;;19.60;12.32;;;;;;;3.77;58.21;102567.28;3582660;40;20283;-61
2022/03/01 00:24:25;;;;;;;22.92;12.60;;;;;;;3.80;57.95;102587.66;3583470;40;20052;-61
2022/03/01 00:26:51;;;;;;;19.00;11.95;;;;;;;3.57;57.87;102551.44;3584777;40;20114;-61
2022/03/01 00:29:17;;;;;;;21.73;12.95;;;;;;;3.53;58.33;102551.47;3583623;40;20072;-61
2022/03/01 00:31:43;;;;;;;18.75;12.30;;;;;;;3.64;59.23;102578.88;3584283;40;20410;-62
2022/03/01 00:34:08;;;;;;;19.90;12.52;;;;;;;3.59;58.45;102578.03;3583238;40;20084;-61
2022/03/01 00:36:36;;;;;;;22.40;12.32;;;;;;;3.30;58.60;102541.81;3582547;40;20048;-61
2022/03/01 00:39:04;;;;;;;19.75;12.63;;;;;;;3.32;58.97;102553.31;3580649;40;20410;-62
2022/03/01 00:41:30;;;;;;;21.05;12.88;;;;;;;3.44;58.97;102579.84;3584295;40;20068;-61
2022/03/01 00:43:55;;;;;;;21.00;12.77;;;;;;;3.40;59.11;102582.53;3581028;40;20064;-62
2022/03/01 00:46:23;;;;;;;19.67;12.60;;;;;;;3.35;60.71;102586.97;3580744;40;20059;-61
2022/03/01 00:48:49;;;;;;;20.42;12.73;;;;;;;3.31;60.89;102585.22;3583034;40;20450;-61
2022/03/01 00:51:14;;;;;;;20.77;12.18;;;;;;;3.26;61.28;102572.81;3582553;40;20063;-61
2022/03/01 00:53:40;;;;;;;21.95;12.10;;;;;;;3.20;60.46;102575.53;3581259;40;20044;-61
2022/03/01 00:56:06;;;;;;;19.85;12.40;;;;;;;3.20;60.69;102577.28;3581603;40;20060;-61
2022/03/01 00:58:32;;;;;;;23.65;12.52;;;;;;;3.15;60.15;102571.09;3584401;40;20063;-61
2022/03/01 01:00:57;;;;;;;19.65;12.32;;;;;;;3.18;60.72;102582.59;3583847;40;20084;-61
2022/03/01 01:03:23;;;;;;;19.95;11.82;;;;;;;3.19;60.24;102580.81;3583519;40;20076;-61
2022/03/01 01:05:48;;;;;;;19.27;12.27;;;;;;;3.17;59.63;102577.28;3573467;40;20268;-61
2022/03/01 01:08:14;;;;;;;20.33;12.20;;;;;;;3.09;59.60;102572.00;3584279;40;20063;-61
2022/03/01 01:10:40;;;;;;;18.35;11.95;;;;;;;3.09;59.50;102571.13;3582155;40;20048;-61
2022/03/01 01:13:06;;;;;;;18.15;11.20;;;;;;;3.09;59.86;102579.09;3585751;40;20379;-62
2022/03/01 01:15:32;;;;;;;20.45;12.30;;;;;;;3.09;59.32;102573.78;3585242;40;20122;-62
2022/03/01 01:17:58;;;;;;;21.05;12.52;;;;;;;3.08;59.78;102575.56;3585324;40;20122;-62
2022/03/01 01:20:24;;;;;;;19.77;11.70;;;;;;;3.08;59.90;102574.69;3585204;40;20052;-62
2022/03/01 01:22:50;;;;;;;18.83;11.85;;;;;;;3.06;59.92;102577.31;3584357;40;20485;-62
2022/03/01 01:25:23;;;;;;;21.40;11.75;;;;;;;3.08;59.77;102580.00;3573626;40;20057;-62
2022/03/01 01:27:54;;;;;;;21.58;12.25;;;;;;;3.10;58.88;102571.09;3583662;40;20055;-62
2022/03/01 01:30:24;;;;;;;20.27;11.90;;;;;;;2.88;59.05;102530.44;3584635;40;20346;-61
2022/03/01 01:32:51;;;;;;;20.55;12.73;;;;;;;3.13;58.59;102572.88;3576980;40;20102;-62
2022/03/01 01:35:22;;;;;;;20.30;11.77;;;;;;;3.08;58.28;102564.94;3584727;40;20048;-61
2022/03/01 01:37:50;;;;;;;17.42;11.02;;;;;;;3.16;59.70;102579.06;3584217;40;20052;-62
2022/03/01 01:40:24;;;;;;;17.63;11.55;;;;;;;3.15;58.73;102573.75;3583118;40;20052;-61
2022/03/01 01:42:51;;;;;;;;;;;;;;;3.14;59.56;102574.63;3576279;40;20055;-62
2022/03/01 01:45:19;;;;;;;19.52;11.20;;;;;;;3.15;58.40;102577.31;3583370;40;19959;-61
2022/03/01 01:47:45;;;;;;;20.88;11.35;;;;;;;3.19;58.50;102572.84;3583562;40;20080;-62
2022/03/01 01:50:11;;;;;;;17.00;11.18;;;;;;;3.22;58.45;102572.84;3584647;40;20125;-62
2022/03/01 01:52:36;;;;;;;18.45;11.32;;;;;;;3.23;58.20;102569.28;3583175;40;20084;-61
2022/03/01 01:55:04;;;;;;;18.52;10.98;;;;;;;3.28;58.12;102564.84;3573745;40;20063;-61
2022/03/01 01:57:29;;;;;;;18.73;11.18;;;;;;;3.31;56.72;102567.50;3581561;40;20056;-62
2022/03/01 01:59:56;;;;;;;18.27;11.65;;;;;;;3.26;57.74;102553.34;3581338;40;20370;-61
2022/03/01 02:02:25;;;;;;;18.67;11.57;;;;;;;3.35;58.57;102574.56;3585894;40;20346;-62
2022/03/01 02:04:50;;;;;;;18.85;11.10;;;;;;;3.21;57.27;102542.75;3570466;40;20136;-62
2022/03/01 02:07:17;;;;;;;17.67;10.70;;;;;;;3.38;57.28;102571.03;3584166;40;20093;-61
2022/03/01 02:09:43;;;;;;;19.30;11.27;;;;;;;3.14;57.38;102524.16;3584135;40;20395;-62
2022/03/01 02:12:10;;;;;;;16.13;10.85;;;;;;;3.43;56.49;102567.47;3583927;40;20125;-61
2022/03/01 02:14:40;;;;;;;21.33;11.73;;;;;;;3.45;56.68;102554.16;3583273;40;20059;-62
2022/03/01 02:17:09;;;;;;;17.58;10.27;;;;;;;3.52;55.83;102562.97;3584762;40;20088;-62
2022/03/01 02:19:37;;;;;;;16.00;10.35;;;;;;;3.57;55.69;102562.06;3584603;40;20056;-62
2022/03/01 02:22:06;;;;;;;19.63;10.90;;;;;;;3.49;55.91;102537.31;3581164;40;20125;-62
2022/03/01 02:24:33;;;;;;;16.08;10.07;;;;;;;3.66;55.80;102561.16;3580074;40;20052;-62
2022/03/01 02:27:05;;;;;;;16.30;10.07;;;;;;;3.58;55.73;102553.19;3583820;40;20055;-62
2022/03/01 02:29:32;;;;;;;16.25;10.82;;;;;;;3.63;56.40;102563.81;3583248;40;20055;-62
2022/03/01 02:32:04;;;;;;;16.65;10.70;;;;;;;3.59;56.05;102562.97;3585498;40;20116;-62
2022/03/01 02:34:30;;;;;;;18.85;10.50;;;;;;;3.60;56.00;102570.03;3581493;40;20134;-62
2022/03/01 02:36:56;;;;;;;19.65;11.20;;;;;;;3.62;55.68;102562.06;3583185;40;20117;-62
2022/03/01 02:39:21;;;;;;;15.68;10.50;;;;;;;3.61;56.04;102561.16;3584634;40;20060;-62
2022/03/01 02:41:47;;;;;;;18.30;10.68;;;;;;;3.67;55.60;102558.47;3583125;40;20300;-61
2022/03/01 02:44:15;;;;;;;17.05;9.95;;;;;;;3.73;54.83;102566.41;3580431;40;20391;-62
2022/03/01 02:46:41;;;;;;;15.88;10.63;;;;;;;3.78;54.57;102557.53;3585683;40;20084;-62
2022/03/01 02:51:43;;;;;;;18.88;10.55;;;;;;;3.80;54.41;102532.69;3587761;40;20430;-64
2022/03/01 02:54:09;;;;;;;18.33;9.98;;;;;;;3.95;53.89;102550.34;3588935;40;20056;-63
2022/03/01 02:56:34;;;;;;;14.45;9.65;;;;;;;4.01;53.95;102541.44;3588513;40;20048;-63
2022/03/01 02:59:00;;;;;;;16.65;10.65;;;;;;;4.04;53.22;102539.63;3588023;40;20071;-63
2022/03/01 03:01:28;;;;;;;16.52;10.10;;;;;;;4.10;52.98;102538.72;3588855;40;20072;-63
2022/03/01 03:03:54;;;;;;;16.80;10.80;;;;;;;4.17;52.94;102540.41;3587681;40;20056;-63
2022/03/01 03:06:20;;;;;;;20.77;10.30;;;;;;;4.20;53.04;102537.72;3589814;40;20291;-63
2022/03/01 03:08:46;;;;;;;17.10;10.63;;;;;;;4.07;53.89;102502.34;3589035;40;20092;-63
2022/03/01 03:11:11;;;;;;;18.42;10.80;;;;;;;4.21;53.47;102536.81;3587210;40;20087;-63
2022/03/01 03:13:37;;;;;;;16.70;10.27;;;;;;;4.22;54.41;102537.72;3590204;40;20390;-63
2022/03/01 03:16:04;;;;;;;18.63;10.20;;;;;;;4.21;54.20;102530.63;3591430;40;20055;-63
2022/03/01 03:18:31;;;;;;;17.33;10.30;;;;;;;4.18;54.05;102534.19;3588088;40;20064;-63
2022/03/01 03:20:57;;;;;;;15.35;9.75;;;;;;;4.18;53.54;102527.09;3589685;40;20048;-63
2022/03/01 03:23:22;;;;;;;18.80;10.70;;;;;;;4.18;53.66;102531.53;3588018;40;20040;-64
2022/03/01 03:25:48;;;;;;;16.15;10.63;;;;;;;4.21;54.31;102531.50;3585290;40;20387;-63
2022/03/01 03:28:14;;;;;;;17.52;10.80;;;;;;;4.19;53.77;102536.84;3589678;40;20059;-63
2022/03/01 03:30:39;;;;;;;17.77;11.18;;;;;;;4.19;54.58;102530.66;3590087;39;20074;-63
2022/03/01 03:33:05;;;;;;;17.77;10.63;;;;;;;4.16;54.49;102522.69;3585347;40;20052;-63
2022/03/01 03:35:31;;;;;;;18.23;10.77;;;;;;;4.17;53.92;102535.09;3588496;40;20060;-63
2022/03/01 03:37:56;;;;;;;16.35;10.45;;;;;;;4.18;54.11;102539.50;3589724;40;20128;-63
2022/03/01 03:40:22;;;;;;;18.90;10.82;;;;;;;4.09;54.27;102515.63;3589106;39;20075;-64
2022/03/01 03:42:48;;;;;;;16.75;10.55;;;;;;;4.19;53.37;102533.31;3586441;40;20056;-63
2022/03/01 03:45:13;;;;;;;19.08;10.85;;;;;;;4.20;53.72;102540.41;3584940;40;20055;-63
2022/03/01 03:47:42;;;;;;;17.40;10.95;;;;;;;3.82;54.08;102471.50;3586565;40;20418;-63
2022/03/01 03:50:11;;;;;;;17.60;10.32;;;;;;;4.17;54.62;102535.09;3588218;39;20075;-62
2022/03/01 03:52:40;;;;;;;14.88;9.75;;;;;;;4.05;54.52;102520.09;3588644;40;20040;-64
2022/03/01 03:55:09;;;;;;;18.33;11.43;;;;;;;4.14;54.52;102529.78;3588537;40;20415;-64
2022/03/01 03:57:36;;;;;;;15.63;9.88;;;;;;;4.12;53.51;102531.56;3586891;40;20106;-63
2022/03/01 04:00:15;;;;;;;17.27;10.60;;;;;;;4.13;53.28;102530.69;3587495;40;20088;-63
2022/03/01 04:02:42;;;;;;;20.73;10.88;;;;;;;4.11;53.91;102535.13;3588621;40;20052;-63
2022/03/01 04:05:09;;;;;;;18.00;10.98;;;;;;;4.07;54.21;102538.72;3589907;40;20054;-63
2022/03/01 04:07:35;;;;;;;19.15;11.25;;;;;;;4.03;55.36;102537.88;3590441;40;20061;-63
2022/03/01 04:10:00;;;;;;;18.42;10.98;;;;;;;3.99;54.91;102543.22;3589162;40;20056;-63
2022/03/01 04:12:26;;;;;;;19.17;11.05;;;;;;;3.86;55.15;102518.47;3589641;40;20067;-62
2022/03/01 04:14:51;;;;;;;18.80;11.30;;;;;;;3.92;56.20;102529.94;3590074;40;20051;-62
2022/03/01 04:17:17;;;;;;;19.55;10.80;;;;;;;3.97;56.40;102531.72;3589908;40;20401;-62
2022/03/01 04:19:43;;;;;;;19.45;11.70;;;;;;;3.95;55.89;102535.25;3587047;40;20056;-62
2022/03/01 04:22:08;;;;;;;18.52;11.50;;;;;;;3.66;56.07;102484.03;3585635;40;20056;-62
2022/03/01 04:24:34;;;;;;;16.10;11.23;;;;;;;4.00;55.58;102542.34;3591533;40;20060;-62
2022/03/01 04:26:59;;;;;;;17.67;11.10;;;;;;;3.98;56.47;102541.44;3591031;40;20060;-62
2022/03/01 04:29:25;;;;;;;19.20;11.60;;;;;;;3.99;56.10;102540.53;3593153;39;20063;-62
2022/03/01 04:31:51;;;;;;;21.20;11.25;;;;;;;4.00;54.92;102545.00;3592747;40;20074;-62
2022/03/01 04:34:17;;;;;;;19.88;11.23;;;;;;;4.07;55.58;102549.38;3590568;40;20068;-62
2022/03/01 04:36:42;;;;;;;17.70;11.32;;;;;;;4.10;55.17;102541.38;3592206;40;20048;-63
2022/03/01 04:39:08;;;;;;;20.08;10.85;;;;;;;4.17;53.09;102535.97;3592433;39;20052;-62
2022/03/01 04:41:33;;;;;;;18.40;11.50;;;;;;;4.24;53.47;102544.78;3589340;40;20058;-62
2022/03/01 04:43:59;;;;;;;18.23;11.38;;;;;;;4.29;53.88;102544.78;3591071;40;20059;-63
2022/03/01 04:46:25;;;;;;;18.88;11.45;;;;;;;4.32;52.98;102527.00;3589639;40;20062;-62
2022/03/01 04:48:50;;;;;;;19.42;10.80;;;;;;;4.42;52.32;102536.66;3591861;40;20039;-63
2022/03/01 04:51:21;;;;;;;18.25;11.40;;;;;;;4.48;51.86;102532.19;3589863;39;20298;-63
2022/03/01 04:53:48;;;;;;;19.08;11.30;;;;;;;4.53;51.94;102527.69;3593012;40;20056;-63
2022/03/01 04:56:14;;;;;;;16.75;10.23;;;;;;;4.58;51.08;102528.53;3591445;40;20399;-62
2022/03/01 04:58:39;;;;;;;17.35;10.48;;;;;;;4.63;51.27;102529.34;3589811;40;20114;-63
2022/03/01 05:01:05;;;;;;;17.80;10.90;;;;;;;4.65;50.74;102530.22;3589001;39;20129;-63
2022/03/01 05:03:31;;;;;;;19.58;11.40;;;;;;;4.67;51.34;102523.13;3581310;40;20060;-63
2022/03/01 05:05:56;;;;;;;18.67;11.10;;;;;;;4.68;51.18;102519.56;3593147;40;20056;-62
2022/03/01 05:08:22;;;;;;;18.23;10.75;;;;;;;4.70;50.58;102520.44;3591425;40;20337;-62
2022/03/01 05:10:47;;;;;;;21.70;11.65;;;;;;;4.71;50.80;102522.19;3592155;40;20040;-63
2022/03/01 05:13:13;;;;;;;21.08;10.98;;;;;;;4.73;50.04;102525.72;3590780;40;20410;-62
2022/03/01 05:15:40;;;;;;;19.85;11.63;;;;;;;4.74;51.61;102522.16;3588738;40;20102;-62
2022/03/01 05:18:06;;;;;;;17.10;11.05;;;;;;;4.48;51.32;102476.28;3588712;40;20267;-62
2022/03/01 05:20:32;;;;;;;20.35;11.13;;;;;;;4.70;50.73;102514.22;3587807;40;20055;-62
2022/03/01 05:22:57;;;;;;;17.17;10.68;;;;;;;4.69;51.12;102521.31;3591290;40;20088;-62
2022/03/01 05:25:24;;;;;;;18.35;10.98;;;;;;;4.69;51.20;102517.75;3586982;40;20104;-63
2022/03/01 05:27:52;;;;;;;21.00;11.02;;;;;;;4.68;50.67;102516.00;3585820;40;20056;-62
2022/03/01 05:30:20;;;;;;;17.80;11.30;;;;;;;3.16;50.29;102254.03;3589781;40;20358;-62
2022/03/01 05:32:50;;;;;;;18.38;11.18;;;;;;;4.62;50.32;102491.19;3588227;40;20059;-63
2022/03/01 05:35:20;;;;;;;16.42;10.15;;;;;;;4.71;51.03;102508.00;3590319;40;20059;-63
2022/03/01 05:37:52;;;;;;;29.35;17.45;;;;;;;4.67;50.52;102493.81;3589458;40;20052;-63
2022/03/01 05:40:23;;;;;;;18.05;11.02;;;;;;;4.70;50.49;102501.78;3589784;40;20118;-62
2022/03/01 05:42:49;;;;;;;17.88;11.23;;;;;;;4.69;51.32;102502.66;3588295;40;20391;-62
2022/03/01 05:45:15;;;;;;;18.63;10.60;;;;;;;4.68;51.30;102490.25;3588612;40;20121;-63
2022/03/01 05:47:43;;;;;;;19.67;11.20;;;;;;;4.68;50.87;102500.91;3589049;40;20088;-62
2022/03/01 05:50:10;;;;;;;18.83;11.13;;;;;;;4.69;50.86;102492.00;3589045;40;20067;-62
2022/03/01 05:52:37;;;;;;;18.52;10.98;;;;;;;3.99;50.47;102379.13;3588665;40;20272;-62
2022/03/01 05:55:06;;;;;;;19.75;11.40;;;;;;;4.66;49.85;102492.03;3589882;40;20043;-63
2022/03/01 05:57:32;;;;;;;21.10;11.63;;;;;;;4.64;51.05;102497.41;3587651;40;20081;-62
2022/03/01 05:59:58;;;;;;;19.17;11.65;;;;;;;4.61;50.83;102492.09;3590914;40;20043;-62
2022/03/01 06:02:25;;;;;;;19.08;11.10;;;;;;;4.61;50.83;102493.88;3590511;40;20052;-63
2022/03/01 06:04:52;;;;;;;23.52;11.93;;;;;;;4.56;51.46;102493.03;3590453;40;20064;-63
2022/03/01 06:07:18;;;;;;;18.95;11.40;;;;;;;4.52;51.29;102493.97;3588952;40;20477;-62
2022/03/01 06:09:44;;;;;;;17.48;10.68;;;;;;;4.51;50.60;102495.75;3589123;39;20480;-63
2022/03/01 06:12:10;;;;;;;19.10;11.85;;;;;;;4.49;51.38;102489.56;3588472;40;20059;-64
2022/03/01 06:14:36;;;;;;;19.25;11.57;;;;;;;4.50;50.77;102485.09;3588924;40;20133;-63
2022/03/01 06:17:01;;;;;;;18.77;11.55;;;;;;;4.49;50.35;102484.22;3581555;40;20333;-62
2022/03/01 06:19:27;;;;;;;18.80;11.60;;;;;;;4.49;51.25;102491.34;3587192;40;20079;-62
2022/03/01 06:21:53;;;;;;;24.38;11.68;;;;;;;4.50;50.52;102490.44;3590555;39;20071;-62
2022/03/01 06:24:19;;;;;;;15.82;10.95;;;;;;;4.50;50.37;102491.31;3589247;40;20048;-62
2022/03/01 06:26:45;;;;;;;19.08;11.77;;;;;;;4.50;51.13;102485.09;3588607;40;20051;-62
2022/03/01 06:29:11;;;;;;;20.05;11.25;;;;;;;4.49;51.14;102489.56;3589834;40;20056;-62
2022/03/01 06:31:36;;;;;;;19.90;11.48;;;;;;;4.51;52.37;102494.88;3589034;40;20093;-62
2022/03/01 06:34:02;;;;;;;22.38;11.98;;;;;;;4.43;52.13;102495.81;3589649;40;20047;-62
2022/03/01 06:36:28;;;;;;;21.90;11.73;;;;;;;4.35;52.74;102510.13;3592089;40;20086;-62
2022/03/01 06:38:54;;;;;;;21.70;12.27;;;;;;;4.21;53.81;102501.34;3592554;40;20051;-64
2022/03/01 06:41:20;;;;;;;22.08;12.48;;;;;;;4.16;53.48;102504.06;3590763;39;20305;-64
2022/03/01 06:43:45;;;;;;;23.00;12.30;;;;;;;4.18;54.56;102516.44;3591529;40;20075;-64
2022/03/01 06:46:12;;;;;;;17.65;11.77;;;;;;;4.13;54.24;102509.41;3588429;40;20391;-64
2022/03/01 06:48:37;;;;;;;18.15;11.40;;;;;;;3.99;53.65;102495.31;3588652;40;20370;-64
2022/03/01 06:51:05;;;;;;;17.77;12.07;;;;;;;4.22;52.21;102512.00;3583872;40;20056;-63
2022/03/01 06:53:30;;;;;;;22.17;12.82;;;;;;;4.29;51.90;102524.34;3587227;40;20172;-64
2022/03/01 06:55:56;;;;;;;22.50;12.52;;;;;;;4.37;51.77;102526.94;3589479;40;20044;-64
2022/03/01 06:58:22;;;;;;;22.67;12.05;;;;;;;4.47;51.74;102527.75;3587030;40;20070;-63
2022/03/01 07:00:48;;;;;;;21.15;12.45;;;;;;;4.53;51.54;102535.66;3586203;40;20056;-64
2022/03/01 07:03:13;;;;;;;21.10;12.80;;;;;;;4.62;51.88;102544.47;3588667;40;20040;-64
2022/03/01 07:05:39;;;;;;;24.38;13.00;;;;;;;4.73;51.61;102532.84;3587813;40;20052;-64
2022/03/01 07:08:04;;;;;;;21.02;13.30;;;;;;;4.77;51.54;102522.13;3586306;40;20060;-62
2022/03/01 07:10:32;;;;;;;22.92;13.07;;;;;;;4.84;50.97;102518.47;3589633;40;20072;-64
2022/03/01 07:12:57;;;;;;;24.92;13.10;;;;;;;5.05;50.71;102538.69;3590266;40;20290;-64
2022/03/01 07:15:23;;;;;;;25.13;13.73;;;;;;;5.12;51.09;102537.72;3587802;40;20047;-64
2022/03/01 07:17:48;;;;;;;24.35;13.30;;;;;;;5.18;50.11;102530.56;3588884;40;20048;-64
2022/03/01 07:20:15;;;;;;;25.92;13.68;;;;;;;5.06;49.88;102488.94;3587838;40;20054;-65
2022/03/01 07:22:41;;;;;;;21.48;12.98;;;;;;;5.19;49.53;102503.88;3588963;40;20059;-64
2022/03/01 07:25:07;;;;;;;24.50;12.55;;;;;;;5.41;49.25;102532.94;3585223;40;20052;-64
2022/03/01 07:27:33;;;;;;;19.48;12.52;;;;;;;5.41;48.61;102530.25;3585062;40;20056;-64
2022/03/01 07:29:59;;;;;;;23.42;12.90;;;;;;;5.47;48.57;102540.84;3587152;40;20264;-64
2022/03/01 07:32:25;;;;;;;23.17;12.60;;;;;;;5.53;48.23;102538.09;3591033;40;20059;-64
2022/03/01 07:34:51;;;;;;;20.60;12.48;;;;;;;5.57;48.25;102542.50;3589004;40;20383;-64
2022/03/01 07:37:17;;;;;;;21.05;12.80;;;;;;;5.56;48.61;102543.41;3589233;40;20052;-64
2022/03/01 07:39:42;;;;;;;21.55;13.05;;;;;;;5.66;48.74;102547.72;3590593;40;20063;-63
2022/03/01 07:42:08;;;;;;;25.58;13.10;;;;;;;5.69;48.23;102561.00;3588686;40;20071;-64
2022/03/01 07:44:37;;;;;;;20.83;12.88;;;;;;;5.79;48.11;102564.44;3589442;40;20054;-64
2022/03/01 07:47:06;;;;;;;21.35;12.95;;;;;;;5.58;47.72;102523.81;3587214;40;20048;-64
2022/03/01 07:49:33;;;;;;;21.47;13.37;;;;;;;5.86;48.29;102559.88;3591172;40;20361;-63
2022/03/01 07:51:58;;;;;;;19.50;13.13;;;;;;;5.90;48.25;102550.91;3589225;40;20048;-64
2022/03/01 07:54:24;;;;;;;19.13;12.85;;;;;;;5.91;47.70;102547.38;3589224;40;20054;-64
2022/03/01 07:56:50;;;;;;;20.80;12.68;;;;;;;5.81;47.62;102522.59;3590340;40;20059;-63
2022/03/01 07:59:15;;;;;;;19.88;12.63;;;;;;;5.92;47.63;102543.78;3585829;40;20824;-64
2022/03/01 08:01:41;;;;;;;20.98;12.30;;;;;;;5.64;47.11;102504.16;3590160;40;20052;-64
2022/03/01 08:04:07;;;;;;;20.15;12.57;;;;;;;5.58;47.66;102491.81;3588124;40;20083;-64
2022/03/01 08:06:33;;;;;;;22.08;12.20;;;;;;;5.87;47.87;102545.63;3588264;40;20346;-64
2022/03/01 08:08:58;;;;;;;20.25;12.13;;;;;;;5.79;47.44;102543.97;3589364;40;20377;-63
2022/03/01 08:11:24;;;;;;;21.55;12.77;;;;;;;5.82;47.55;102559.94;3588772;40;20096;-63
2022/03/01 08:13:50;;;;;;;20.95;12.27;;;;;;;5.82;47.94;102556.38;3587512;40;20059;-63
2022/03/01 08:16:16;;;;;;;20.52;12.27;;;;;;;5.83;47.67;102560.81;3589493;40;20051;-64
2022/03/01 08:18:42;;;;;;;20.52;12.50;;;;;;;5.91;48.60;102569.59;3590166;40;20120;-63
2022/03/01 08:21:08;;;;;;;21.40;12.18;;;;;;;5.95;47.79;102560.66;3592011;40;20059;-64
2022/03/01 08:23:34;;;;;;;20.77;12.75;;;;;;;6.02;48.10;102556.09;3587535;40;20275;-63
2022/03/01 08:26:01;;;;;;;19.60;12.80;;;;;;;6.05;47.88;102564.06;3587196;40;20051;-63
2022/03/01 08:28:26;;;;;;;18.80;12.02;;;;;;;6.07;48.64;102559.59;3586535;40;20304;-63
2022/03/01 08:30:53;;;;;;;18.00;11.85;;;;;;;6.14;47.85;102571.06;3589657;40;20060;-63
2022/03/01 08:33:20;;;;;;;20.42;12.90;;;;;;;6.16;47.33;102562.13;3590151;40;20091;-64
2022/03/01 08:35:46;;;;;;;19.08;11.82;;;;;;;6.20;47.05;102565.63;3578687;40;20040;-65
2022/03/01 08:38:11;;;;;;;18.70;12.02;;;;;;;6.09;47.68;102541.78;3592822;40;20079;-64
2022/03/01 08:40:39;;;;;;;19.85;12.13;;;;;;;5.98;47.82;102511.69;3590749;40;20102;-63
2022/03/01 08:43:07;;;;;;;20.85;12.27;;;;;;;6.33;46.93;102564.53;3593134;40;20043;-64
2022/03/01 08:45:33;;;;;;;20.42;12.68;;;;;;;6.38;46.94;102570.69;3589100;40;20048;-63
2022/03/01 08:48:00;;;;;;;21.77;12.25;;;;;;;6.41;47.93;102573.31;3591224;40;20073;-64
2022/03/01 08:50:26;;;;;;;20.33;12.48;;;;;;;6.34;47.29;102546.72;3621389;22;20461;-59
2022/03/01 08:52:52;;;;;;;20.20;13.13;;;;;;;6.59;48.05;102581.91;3568332;40;20111;-60
2022/03/01 08:55:18;;;;;;;21.23;12.43;;;;;;;6.46;48.26;102541.16;3579450;40;20068;-59
2022/03/01 08:57:44;;;;;;;21.20;12.05;;;;;;;6.69;47.81;102565.72;3581989;40;20454;-60
2022/03/01 09:00:13;;;;;;;19.27;12.77;;;;;;;6.98;47.07;102583.88;3580289;40;20159;-62
2022/03/01 09:02:39;;;;;;;17.52;11.30;;;;;;;7.12;46.61;102580.06;3580565;40;20063;-60
2022/03/01 09:05:05;;;;;;;19.33;12.82;;;;;;;7.20;47.75;102581.69;3578967;40;20300;-59
2022/03/01 09:07:33;;;;;;;18.02;11.98;;;;;;;7.38;46.23;102580.41;3579004;40;20044;-58
2022/03/01 09:09:59;;;;;;;20.27;12.75;;;;;;;7.64;46.07;102598.63;3581393;40;20053;-60
2022/03/01 09:12:24;;;;;;;18.30;11.55;;;;;;;7.77;45.21;102590.31;3580187;40;20452;-59
2022/03/01 09:14:50;;;;;;;22.90;13.35;;;;;;;7.94;43.96;102587.28;3578683;40;20056;-60
2022/03/01 09:17:16;;;;;;;16.27;11.85;;;;;;;8.13;43.86;102599.34;3583405;40;20562;-59
2022/03/01 09:19:41;;;;;;;19.17;11.80;;;;;;;8.17;43.48;102581.38;3577165;40;20071;-59
2022/03/01 09:22:08;;;;;;;18.45;12.55;;;;;;;8.29;43.67;102589.13;3582919;40;20054;-62
2022/03/01 09:24:33;;;;;;;17.27;11.98;;;;;;;8.25;42.86;102587.47;3581807;40;20056;-59
2022/03/01 09:27:02;;;;;;;17.73;12.38;;;;;;;8.22;42.92;102583.06;3582121;40;20481;-60
2022/03/01 09:29:30;;;;;;;19.17;12.05;;;;;;;8.27;43.59;102588.28;3565844;40;20052;-59
2022/03/01 09:31:57;;;;;;;21.77;13.00;;;;;;;8.17;42.89;102573.34;3577534;40;20063;-60
2022/03/01 09:34:23;;;;;;;21.73;13.13;;;;;;;8.29;43.66;102592.69;3581517;40;20083;-59
2022/03/01 09:36:49;;;;;;;20.58;12.13;;;;;;;8.33;43.77;102590.81;3582292;40;20052;-61
2022/03/01 09:39:15;;;;;;;18.35;12.07;;;;;;;8.27;42.65;102569.53;3585142;40;20288;-59
2022/03/01 09:41:41;;;;;;;22.50;12.40;;;;;;;8.29;42.71;102568.59;3583145;40;20064;-58
2022/03/01 09:44:08;;;;;;;20.30;12.77;;;;;;;8.31;43.55;102549.81;3581050;40;20081;-59
2022/03/01 09:46:34;;;;;;;21.10;12.65;;;;;;;8.46;43.32;102565.50;3582109;40;20303;-60
2022/03/01 09:49:00;;;;;;;17.17;12.25;;;;;;;8.53;42.91;102583.22;3580674;40;20051;-60
2022/03/01 09:51:27;;;;;;;22.10;11.68;;;;;;;8.57;42.15;102587.56;3580984;40;20049;-59
2022/03/01 09:53:54;;;;;;;22.48;13.05;;;;;;;8.69;42.34;102598.88;3582795;40;20060;-60
2022/03/01 09:56:20;;;;;;;20.35;12.23;;;;;;;8.73;43.04;102589.88;3585080;40;20059;-60
2022/03/01 09:58:50;;;;;;;18.75;12.45;;;;;;;8.84;42.18;102598.50;3586951;40;20060;-61
2022/03/01 10:01:18;;;;;;;18.80;12.40;;;;;;;8.78;41.84;102590.63;3586406;40;20114;-61
2022/03/01 10:03:49;;;;;;;16.58;11.98;;;;;;;8.87;42.31;102609.16;3578531;40;20674;-61
2022/03/01 10:06:18;;;;;;;16.48;11.18;;;;;;;8.87;42.07;102605.59;3579861;40;20058;-61
2022/03/01 10:08:54;;;;;;;18.52;12.25;;;;;;;8.89;42.68;102607.31;3578960;40;20055;-60
2022/03/01 10:11:20;;;;;;;18.50;11.93;;;;;;;8.86;41.38;102601.16;3580709;40;20091;-61
2022/03/01 10:13:46;;;;;;;17.35;11.90;;;;;;;8.88;41.51;102601.97;3576649;40;20045;-61
2022/03/01 10:16:17;;;;;;;17.27;10.98;;;;;;;8.83;41.81;102588.72;3579755;40;20044;-60
2022/03/01 10:18:54;;;;;;;18.50;12.15;;;;;;;8.92;41.26;102599.19;3574584;40;20065;-60
2022/03/01 10:21:24;;;;;;;17.55;11.50;;;;;;;8.95;41.18;102599.13;3580565;40;20048;-60
2022/03/01 10:23:58;;;;;;;16.10;11.48;;;;;;;8.91;41.28;102597.44;3581070;40;20055;-61
2022/03/01 10:26:31;;;;;;;19.23;11.50;;;;;;;9.03;42.01;102605.13;3578681;40;20060;-61
2022/03/01 10:28:59;;;;;;;20.70;12.65;;;;;;;9.04;42.50;102585.47;3581325;40;20075;-60
2022/03/01 10:31:29;;;;;;;17.23;11.32;;;;;;;9.19;41.85;102594.00;3582446;40;20071;-61
2022/03/01 10:34:00;;;;;;;18.25;12.60;;;;;;;9.25;40.61;102593.81;3582753;40;20068;-61
2022/03/01 10:36:54;;;;;;;20.63;12.60;;;;;;;8.94;40.14;102518.69;3582016;40;20052;-60
2022/03/01 10:39:27;;;;;;;16.20;11.45;;;;;;;9.31;40.43;102564.13;3577426;40;20053;-61
2022/03/01 10:41:53;;;;;;;17.70;11.82;;;;;;;9.56;40.49;102572.34;3581295;40;20093;-59
2022/03/01 10:44:30;;;;;;;18.90;12.55;;;;;;;9.72;42.19;102578.16;3584274;40;20052;-59
2022/03/01 10:47:01;;;;;;;17.08;11.32;;;;;;;9.85;39.53;102566.09;3583305;40;20069;-59
2022/03/01 10:49:33;;;;;;;18.15;11.73;;;;;;;10.08;40.72;102586.00;3571640;40;20048;-59
2022/03/01 10:52:07;;;;;;;17.45;11.68;;;;;;;10.23;39.13;102582.81;3582071;40;20391;-60
2022/03/01 10:54:43;;;;;;;17.98;12.07;;;;;;;10.29;38.89;102593.41;3583904;40;20051;-59
2022/03/01 10:57:21;;;;;;;19.77;11.93;;;;;;;10.50;38.81;102596.31;3582664;40;20056;-60
2022/03/01 10:59:50;;;;;;;18.35;12.02;;;;;;;10.53;38.09;102596.22;3581090;40;20053;-60
2022/03/01 11:02:17;;;;;;;18.38;12.43;;;;;;;10.59;38.99;102599.59;3582959;40;20048;-59
2022/03/01 11:04:48;;;;;;;17.55;12.50;;;;;;;10.56;38.85;102582.66;3583165;40;20056;-60
2022/03/01 11:07:15;;;;;;;20.65;11.52;;;;;;;10.75;39.11;102599.97;3581807;40;20036;-60
2022/03/01 11:09:43;;;;;;;17.73;11.73;;;;;;;10.74;37.90;102600.00;3580076;40;20111;-59
2022/03/01 11:12:09;;;;;;;18.08;11.63;;;;;;;10.66;38.91;102592.19;3579891;40;20044;-63
2022/03/01 11:14:46;;;;;;;19.02;13.00;;;;;;;10.58;40.25;102581.69;3580902;40;20342;-63
2022/03/01 11:17:37;;;;;;;19.30;12.43;;;;;;;10.69;39.50;102602.84;3580326;40;20060;-58